createdAt,value
2018-08-07T00:01:49.923Z,20.13
2018-08-07T00:04:19.961Z,20.30
2018-08-07T00:06:49.999Z,21.57
2018-08-07T00:09:20.073Z,20.83
2018-08-07T00:11:50.068Z,20.27
2018-08-07T00:14:20.101Z,20.00
2018-08-07T00:16:50.091Z,20.20
2018-08-07T00:19:20.079Z,21.00
2018-08-07T00:21:50.832Z,21.40
2018-08-07T00:24:20.831Z,21.80
2018-08-07T00:26:50.838Z,20.80
2018-08-07T00:29:20.907Z,20.97
2018-08-07T00:31:50.891Z,21.43
2018-08-07T00:34:20.900Z,21.13
2018-08-07T00:36:50.888Z,21.90
2018-08-07T00:39:20.922Z,20.77
2018-08-07T00:41:50.887Z,21.30
2018-08-07T00:44:20.907Z,22.30
2018-08-07T00:46:50.902Z,21.50
2018-08-07T00:49:20.914Z,21.00
2018-08-07T00:51:50.941Z,22.67
2018-08-07T00:54:21.313Z,21.80
2018-08-07T00:56:51.301Z,22.23
2018-08-07T00:59:21.353Z,22.00
2018-08-07T01:01:51.359Z,19.90
2018-08-07T01:04:21.404Z,22.50
2018-08-07T01:06:51.702Z,22.70
2018-08-07T01:09:21.926Z,23.13
2018-08-07T01:11:51.902Z,21.40
2018-08-07T01:14:21.957Z,22.13
2018-08-07T01:16:51.936Z,21.40
2018-08-07T01:19:21.991Z,21.17
2018-08-07T01:21:52.008Z,21.87
2018-08-07T01:24:22.049Z,22.30
2018-08-07T01:26:52.102Z,21.50
2018-08-07T01:29:22.146Z,21.70
2018-08-07T01:31:52.114Z,21.50
2018-08-07T01:34:22.099Z,21.33
2018-08-07T01:36:52.101Z,22.93
2018-08-07T01:39:22.132Z,21.57
2018-08-07T01:41:52.126Z,20.70
2018-08-07T01:44:22.232Z,22.20
2018-08-07T01:46:52.240Z,22.27
2018-08-07T01:49:22.256Z,23.50
2018-08-07T01:51:52.217Z,21.87
2018-08-07T01:54:22.232Z,21.83
2018-08-07T01:56:52.228Z,21.70
2018-08-07T01:59:22.384Z,21.20
2018-08-07T02:01:52.360Z,21.40
2018-08-07T02:04:22.376Z,21.13
2018-08-07T02:06:52.381Z,22.43
2018-08-07T02:09:22.476Z,22.13
2018-08-07T02:11:52.453Z,20.83
2018-08-07T02:14:22.559Z,22.00
2018-08-07T02:16:52.590Z,21.50
2018-08-07T02:19:22.611Z,22.57
2018-08-07T02:21:52.577Z,23.10
2018-08-07T02:24:22.629Z,22.37
2018-08-07T02:26:52.638Z,21.93
2018-08-07T02:29:22.731Z,21.30
2018-08-07T02:31:52.764Z,23.50
2018-08-07T02:34:22.761Z,21.90
2018-08-07T02:36:52.727Z,21.20
2018-08-07T02:39:22.728Z,21.80
2018-08-07T02:41:52.786Z,20.67
2018-08-07T02:44:22.825Z,21.50
2018-08-07T02:46:52.797Z,22.43
2018-08-07T02:49:22.820Z,22.70
2018-08-07T02:51:52.824Z,21.87
2018-08-07T02:54:22.852Z,20.87
2018-08-07T02:56:52.910Z,21.80
2018-08-07T02:59:22.962Z,21.20
2018-08-07T03:01:52.971Z,23.07
2018-08-07T03:04:23.037Z,22.33
2018-08-07T03:06:53.023Z,22.70
2018-08-07T03:09:23.058Z,22.57
2018-08-07T03:11:53.071Z,20.97
2018-08-07T03:14:23.159Z,22.10
2018-08-07T03:16:53.116Z,20.50
2018-08-07T03:19:23.136Z,23.23
2018-08-07T03:21:53.172Z,22.60
2018-08-07T03:24:23.229Z,23.37
2018-08-07T03:26:53.225Z,22.00
2018-08-07T03:29:23.222Z,23.07
2018-08-07T03:31:53.223Z,21.13
2018-08-07T03:34:23.257Z,22.20
2018-08-07T03:36:53.258Z,21.77
2018-08-07T03:39:23.235Z,22.87
2018-08-07T03:41:53.237Z,24.10
2018-08-07T03:44:23.242Z,22.60
2018-08-07T03:46:53.367Z,25.70
2018-08-07T03:49:23.417Z,22.00
2018-08-07T03:51:53.458Z,23.10
2018-08-07T03:54:23.547Z,23.93
2018-08-07T03:56:53.568Z,23.90
2018-08-07T03:59:23.563Z,24.60
2018-08-07T04:01:53.582Z,24.57
2018-08-07T04:04:23.155Z,23.40
2018-08-07T04:06:53.168Z,23.07
2018-08-07T04:09:23.203Z,23.33
2018-08-07T04:11:53.773Z,24.20
2018-08-07T04:14:24.200Z,23.63
2018-08-07T04:16:56.646Z,22.57
2018-08-07T04:19:28.078Z,23.60
2018-08-07T04:21:58.400Z,24.10
2018-08-07T04:24:28.770Z,22.90
2018-08-07T04:26:59.664Z,23.67
2018-08-07T04:29:30.187Z,22.13
2018-08-07T04:32:00.787Z,22.80
2018-08-07T04:34:31.366Z,22.93
2018-08-07T04:37:01.908Z,22.40
2018-08-07T04:39:31.850Z,23.37
2018-08-07T04:42:01.718Z,23.60
2018-08-07T04:44:32.069Z,22.47
2018-08-07T04:47:02.455Z,24.33
2018-08-07T04:49:32.943Z,23.17
2018-08-07T04:52:03.332Z,24.77
2018-08-07T04:54:34.026Z,23.93
2018-08-07T04:57:04.631Z,22.90
2018-08-07T04:59:34.960Z,23.50
2018-08-07T05:02:05.371Z,23.03
2018-08-07T05:04:35.823Z,24.30
2018-08-07T05:07:06.479Z,23.07
2018-08-07T05:09:37.088Z,23.30
2018-08-07T05:12:07.327Z,21.90
2018-08-07T05:14:37.743Z,23.37
2018-08-07T05:17:08.210Z,22.53
2018-08-07T05:19:38.400Z,23.10
2018-08-07T05:22:08.759Z,21.17
2018-08-07T05:24:39.254Z,24.30
2018-08-07T05:27:09.631Z,21.77
2018-08-07T05:29:40.411Z,24.07
2018-08-07T05:32:10.642Z,21.83
2018-08-07T05:34:41.168Z,22.43
2018-08-07T05:37:11.425Z,22.63
2018-08-07T05:39:48.453Z,22.90
2018-08-07T05:42:18.845Z,23.40
2018-08-07T05:44:49.478Z,22.40
2018-08-07T05:47:19.876Z,22.57
2018-08-07T05:49:50.884Z,22.93
2018-08-07T05:52:21.446Z,23.70
2018-08-07T05:54:52.130Z,22.90
2018-08-07T05:57:22.838Z,23.73
2018-08-07T05:59:53.271Z,23.40
2018-08-07T06:02:23.912Z,22.73
2018-08-07T06:04:54.887Z,23.83
2018-08-07T06:07:25.442Z,23.27
2018-08-07T06:09:56.036Z,23.00
2018-08-07T06:12:26.056Z,23.40
2018-08-07T06:14:56.670Z,22.90
2018-08-07T06:17:27.169Z,23.43
2018-08-07T06:19:57.739Z,23.50
2018-08-07T06:22:28.063Z,23.00
2018-08-07T06:24:58.393Z,21.37
2018-08-07T06:27:28.793Z,22.53
2018-08-07T06:29:59.238Z,24.53
2018-08-07T06:32:36.040Z,22.23
2018-08-07T06:35:07.382Z,22.53
2018-08-07T06:37:37.539Z,23.60
2018-08-07T06:40:11.084Z,24.50
2018-08-07T06:42:41.266Z,28.63
2018-08-07T06:45:13.521Z,22.60
2018-08-07T06:47:43.526Z,24.10
2018-08-07T06:50:18.871Z,21.87
2018-08-07T06:52:49.451Z,22.97
2018-08-07T06:55:19.591Z,22.93
2018-08-07T06:57:49.613Z,23.73
2018-08-07T07:00:22.891Z,21.63
2018-08-07T07:02:53.835Z,21.53
2018-08-07T07:05:24.361Z,20.83
2018-08-07T07:07:54.438Z,19.53
2018-08-07T07:10:24.932Z,20.60
2018-08-07T07:12:55.962Z,20.33
2018-08-07T07:15:26.588Z,23.40
2018-08-07T07:18:00.078Z,21.87
2018-08-07T07:20:30.401Z,20.40
2018-08-07T07:23:00.708Z,20.57
2018-08-07T07:25:31.245Z,20.90
2018-08-07T07:28:01.782Z,21.00
2018-08-07T07:30:32.382Z,20.90
2018-08-07T07:33:02.655Z,21.27
2018-08-07T07:35:32.952Z,21.60
2018-08-07T07:38:03.624Z,20.43
2018-08-07T07:40:34.245Z,22.80
2018-08-07T07:43:04.489Z,21.40
2018-08-07T07:45:34.981Z,23.00
2018-08-07T07:48:05.519Z,20.60
2018-08-07T07:50:35.911Z,21.30
2018-08-07T07:53:06.319Z,21.40
2018-08-07T07:55:36.638Z,21.63
2018-08-07T07:58:07.124Z,21.50
2018-08-07T08:00:37.474Z,20.97
2018-08-07T08:03:07.823Z,22.00
2018-08-07T08:05:38.312Z,21.77
2018-08-07T08:08:08.752Z,21.10
2018-08-07T08:10:39.224Z,20.90
2018-08-07T08:13:09.179Z,20.60
2018-08-07T08:15:39.654Z,21.70
2018-08-07T08:18:10.163Z,21.80
2018-08-07T08:20:40.750Z,20.20
2018-08-07T08:23:11.223Z,20.97
2018-08-07T08:25:41.643Z,21.90
2018-08-07T08:28:12.045Z,20.50
2018-08-07T08:30:42.564Z,22.47
2018-08-07T08:33:13.142Z,21.80
2018-08-07T08:35:43.698Z,20.97
2018-08-07T08:38:14.016Z,22.10
2018-08-07T08:40:44.435Z,21.93
2018-08-07T08:43:15.045Z,20.33
2018-08-07T08:45:47.800Z,20.80
2018-08-07T08:48:18.270Z,20.20
2018-08-07T08:50:48.712Z,21.03
2018-08-07T08:53:19.287Z,24.47
2018-08-07T08:55:49.785Z,21.70
2018-08-07T08:58:20.140Z,20.67
2018-08-07T09:00:50.568Z,20.57
2018-08-07T09:03:21.210Z,19.53
2018-08-07T09:05:51.812Z,20.90
2018-08-07T09:08:22.244Z,20.03
2018-08-07T09:10:52.664Z,20.97
2018-08-07T09:13:22.946Z,20.23
2018-08-07T09:15:53.295Z,21.27
2018-08-07T09:18:23.803Z,21.60
2018-08-07T09:20:54.351Z,21.13
2018-08-07T09:23:24.911Z,20.57
2018-08-07T09:25:55.284Z,21.60
2018-08-07T09:28:56.350Z,20.27
2018-08-07T09:31:26.742Z,19.90
2018-08-07T09:33:57.154Z,19.67
2018-08-07T09:36:28.122Z,19.93
2018-08-07T09:38:59.340Z,18.97
2018-08-07T09:41:29.645Z,19.97
2018-08-07T09:44:00.137Z,20.30
2018-08-07T09:46:30.617Z,20.03
2018-08-07T09:49:01.673Z,20.13
2018-08-07T09:51:32.087Z,20.83
2018-08-07T09:54:02.570Z,20.10
2018-08-07T09:56:32.910Z,19.40
2018-08-07T09:59:03.197Z,19.10
2018-08-07T10:01:37.676Z,19.80
2018-08-07T10:04:08.193Z,20.00
2018-08-07T10:06:38.468Z,19.23
2018-08-07T10:09:11.035Z,20.13
2018-08-07T10:11:41.582Z,18.83
2018-08-07T10:14:12.236Z,19.67
2018-08-07T10:16:42.826Z,20.00
2018-08-07T10:19:13.470Z,18.80
2018-08-07T10:21:44.036Z,19.27
2018-08-07T10:24:14.604Z,17.80
2018-08-07T10:26:44.937Z,19.57
2018-08-07T10:29:15.457Z,19.97
2018-08-07T10:31:45.850Z,19.70
2018-08-07T10:34:17.420Z,20.07
2018-08-07T10:36:47.814Z,19.80
2018-08-07T10:39:18.266Z,18.83
2018-08-07T10:41:48.671Z,19.10
2018-08-07T10:44:19.384Z,19.10
2018-08-07T10:46:50.045Z,19.50
2018-08-07T10:49:20.967Z,20.17
2018-08-07T10:51:51.505Z,19.03
2018-08-07T10:54:22.057Z,19.10
2018-08-07T10:56:52.770Z,20.77
2018-08-07T10:59:23.706Z,20.53
2018-08-07T11:01:54.126Z,18.73
2018-08-07T11:04:24.787Z,19.40
2018-08-07T11:06:54.964Z,20.00
2018-08-07T11:09:25.434Z,20.77
2018-08-07T11:11:55.934Z,21.03
2018-08-07T11:14:26.398Z,20.37
2018-08-07T11:16:56.994Z,21.20
2018-08-07T11:19:27.486Z,21.10
2018-08-07T11:21:58.146Z,20.00
2018-08-07T11:24:28.551Z,21.07
2018-08-07T11:26:59.636Z,22.03
2018-08-07T11:29:30.028Z,21.63
2018-08-07T11:32:00.690Z,20.40
2018-08-07T11:34:30.999Z,20.57
2018-08-07T11:37:01.014Z,20.80
2018-08-07T11:39:30.976Z,21.50
2018-08-07T11:42:01.121Z,21.47
2018-08-07T11:44:31.368Z,20.07
2018-08-07T11:47:01.890Z,20.00
2018-08-07T11:49:32.422Z,19.60
2018-08-07T11:52:02.973Z,20.37
2018-08-07T11:54:33.461Z,20.40
2018-08-07T11:57:03.960Z,21.37
2018-08-07T11:59:34.218Z,19.57
2018-08-07T12:02:04.715Z,19.77
2018-08-07T12:04:35.201Z,20.30
2018-08-07T12:07:05.767Z,20.33
2018-08-07T12:09:36.130Z,19.67
2018-08-07T12:12:06.623Z,20.33
2018-08-07T12:14:36.996Z,17.90
2018-08-07T12:17:07.350Z,20.00
2018-08-07T12:19:37.506Z,21.17
2018-08-07T12:22:07.928Z,19.37
2018-08-07T12:24:38.222Z,18.57
2018-08-07T12:27:08.428Z,20.10
2018-08-07T12:29:38.853Z,18.67
2018-08-07T12:32:09.107Z,25.40
2018-08-07T12:34:39.507Z,23.83
2018-08-07T12:37:10.104Z,21.57
2018-08-07T12:39:40.574Z,20.97
2018-08-07T12:42:11.102Z,20.10
2018-08-07T12:44:41.666Z,20.83
2018-08-07T12:47:11.967Z,20.37
2018-08-07T12:49:42.603Z,20.17
2018-08-07T12:52:13.151Z,21.77
2018-08-07T12:54:43.673Z,22.60
2018-08-07T12:57:14.107Z,21.13
2018-08-07T12:59:44.505Z,19.40
2018-08-07T13:02:15.039Z,20.10
2018-08-07T13:04:45.642Z,20.40
2018-08-07T13:07:15.921Z,20.87
2018-08-07T13:09:46.280Z,22.00
2018-08-07T13:12:16.259Z,21.23
2018-08-07T13:14:46.195Z,21.77
2018-08-07T13:17:16.931Z,21.43
2018-08-07T13:19:47.275Z,24.13
2018-08-07T13:22:17.268Z,21.93
2018-08-07T13:24:47.848Z,23.00
2018-08-07T13:27:18.379Z,22.73
2018-08-07T13:29:48.728Z,21.93
2018-08-07T13:32:18.827Z,20.33
2018-08-07T13:34:48.863Z,20.40
2018-08-07T13:37:18.908Z,22.63
2018-08-07T13:39:48.906Z,21.67
2018-08-07T13:42:19.040Z,21.40
2018-08-07T13:44:49.071Z,20.50
2018-08-07T13:47:19.057Z,21.47
2018-08-07T13:49:49.122Z,21.00
2018-08-07T13:52:19.093Z,19.90
2018-08-07T13:54:49.150Z,21.17
2018-08-07T13:57:19.171Z,20.63
2018-08-07T13:59:49.206Z,20.87
2018-08-07T14:02:19.307Z,20.00
2018-08-07T14:04:49.321Z,20.20
2018-08-07T14:07:19.350Z,27.03
2018-08-07T14:09:49.888Z,21.10
2018-08-07T14:12:20.047Z,20.67
2018-08-07T14:14:50.142Z,20.83
2018-08-07T14:17:21.098Z,21.10
2018-08-07T14:19:51.737Z,20.90
2018-08-07T14:22:22.231Z,21.20
2018-08-07T14:24:52.580Z,22.20
2018-08-07T14:27:23.256Z,20.17
2018-08-07T14:29:53.312Z,20.50
2018-08-07T14:32:23.486Z,20.77
2018-08-07T14:34:53.884Z,21.23
2018-08-07T14:37:24.531Z,15.30
2018-08-07T14:39:55.110Z,13.70
2018-08-07T14:42:25.632Z,14.30
2018-08-07T14:44:55.663Z,14.17
2018-08-07T14:47:25.788Z,12.97
2018-08-07T14:49:55.814Z,9.37
2018-08-07T14:52:25.880Z,9.03
2018-08-07T14:54:56.046Z,8.00
2018-08-07T14:57:26.073Z,9.07
2018-08-07T14:59:56.583Z,8.27
2018-08-07T15:02:27.926Z,8.47
2018-08-07T15:04:58.652Z,9.90
2018-08-07T15:07:29.452Z,10.30
2018-08-07T15:10:00.050Z,10.93
2018-08-07T15:12:30.650Z,9.23
2018-08-07T15:15:02.154Z,10.07
2018-08-07T15:17:32.614Z,10.73
2018-08-07T15:20:03.091Z,10.70
2018-08-07T15:22:33.671Z,11.20
2018-08-07T15:25:04.506Z,12.90
2018-08-07T15:27:34.938Z,11.47
2018-08-07T15:30:06.301Z,11.30
2018-08-07T15:32:36.885Z,12.57
2018-08-07T15:35:07.132Z,12.73
2018-08-07T15:37:37.808Z,12.67
2018-08-07T15:40:09.126Z,13.80
2018-08-07T15:42:40.149Z,12.80
2018-08-07T15:45:11.033Z,12.97
2018-08-07T15:47:41.620Z,14.77
2018-08-07T15:50:15.576Z,11.77
2018-08-07T15:52:47.512Z,13.20
2018-08-07T15:55:19.999Z,12.60
2018-08-07T15:57:50.268Z,11.90
2018-08-07T16:00:27.270Z,13.03
2018-08-07T16:02:57.920Z,21.47
2018-08-07T16:05:28.460Z,16.30
2018-08-07T16:07:58.973Z,12.70
2018-08-07T16:10:29.547Z,12.93
2018-08-07T16:13:00.307Z,13.63
2018-08-07T16:15:30.577Z,13.17
2018-08-07T16:18:01.332Z,12.43
2018-08-07T16:20:31.806Z,12.83
2018-08-07T16:23:02.282Z,13.90
2018-08-07T16:25:32.596Z,13.10
2018-08-07T16:28:02.903Z,11.70
2018-08-07T16:30:33.360Z,12.77
2018-08-07T16:33:03.896Z,11.23
2018-08-07T16:35:34.565Z,12.17
2018-08-07T16:38:05.022Z,12.53
2018-08-07T16:40:35.402Z,11.17
2018-08-07T16:43:05.832Z,11.37
2018-08-07T16:45:36.362Z,12.60
2018-08-07T16:48:07.300Z,13.00
2018-08-07T16:50:37.575Z,11.77
2018-08-07T16:53:08.213Z,11.90
2018-08-07T16:55:38.834Z,11.17
2018-08-07T16:58:09.287Z,12.17
2018-08-07T17:00:40.123Z,13.40
2018-08-07T17:03:10.797Z,15.47
2018-08-07T17:05:41.560Z,14.30
2018-08-07T17:08:12.152Z,14.37
2018-08-07T17:10:42.548Z,14.30
2018-08-07T17:13:13.003Z,13.70
2018-08-07T17:15:43.665Z,11.47
2018-08-07T17:18:14.091Z,10.70
2018-08-07T17:20:44.626Z,11.70
2018-08-07T17:23:15.073Z,11.70
2018-08-07T17:25:45.444Z,11.00
2018-08-07T17:28:15.898Z,11.40
2018-08-07T17:30:46.199Z,9.70
2018-08-07T17:33:16.808Z,10.33
2018-08-07T17:35:47.022Z,9.90
2018-08-07T17:38:17.426Z,9.57
2018-08-07T17:40:48.004Z,9.50
2018-08-07T17:43:18.505Z,10.57
2018-08-07T17:45:49.162Z,9.97
2018-08-07T17:48:19.486Z,9.33
2018-08-07T17:50:49.951Z,10.50
2018-08-07T17:53:20.501Z,9.90
2018-08-07T17:55:51.028Z,10.30
2018-08-07T17:58:21.727Z,10.03
2018-08-07T18:00:52.584Z,10.67
2018-08-07T18:03:23.161Z,12.13
2018-08-07T18:05:53.716Z,10.40
2018-08-07T18:08:24.093Z,9.47
2018-08-07T18:10:54.543Z,11.67
2018-08-07T18:13:25.011Z,10.40
2018-08-07T18:15:55.661Z,10.10
2018-08-07T18:18:26.214Z,9.20
2018-08-07T18:20:56.814Z,9.57
2018-08-07T18:23:27.404Z,8.93
2018-08-07T18:25:58.063Z,9.83
2018-08-07T18:28:28.254Z,11.00
2018-08-07T18:30:58.689Z,11.27
2018-08-07T18:33:28.916Z,9.37
2018-08-07T18:35:59.258Z,9.30
2018-08-07T18:38:29.780Z,10.47
2018-08-07T18:41:00.234Z,9.63
2018-08-07T18:43:30.866Z,10.13
2018-08-07T18:46:01.374Z,10.60
2018-08-07T18:48:31.841Z,11.23
2018-08-07T18:51:02.372Z,10.60
2018-08-07T18:53:32.827Z,11.07
2018-08-07T18:56:03.317Z,10.33
2018-08-07T18:58:33.763Z,10.67
2018-08-07T19:01:04.483Z,10.57
2018-08-07T19:03:35.158Z,10.53
2018-08-07T19:06:05.605Z,11.10
2018-08-07T19:08:36.041Z,11.73
2018-08-07T19:11:06.583Z,12.63
2018-08-07T19:13:37.138Z,11.60
2018-08-07T19:16:08.262Z,12.70
2018-08-07T19:18:38.785Z,10.80
2018-08-07T19:21:09.451Z,11.30
2018-08-07T19:23:39.995Z,10.90
2018-08-07T19:26:10.569Z,13.13
2018-08-07T19:28:41.266Z,12.87
2018-08-07T19:31:12.433Z,12.77
2018-08-07T19:33:43.666Z,12.50
2018-08-07T19:36:14.244Z,12.90
2018-08-07T19:38:44.743Z,11.20
2018-08-07T19:41:15.162Z,11.30
2018-08-07T19:43:45.739Z,10.70
2018-08-07T19:46:16.135Z,11.00
2018-08-07T19:48:46.592Z,11.50
2018-08-07T19:51:17.196Z,11.13
2018-08-07T19:53:47.768Z,11.30
2018-08-07T19:56:18.357Z,10.20
2018-08-07T19:58:48.978Z,10.00
2018-08-07T20:01:19.620Z,10.10
2018-08-07T20:03:51.228Z,11.30
2018-08-07T20:06:22.609Z,12.07
2018-08-07T20:08:53.101Z,11.13
2018-08-07T20:11:23.674Z,12.70
2018-08-07T20:13:54.273Z,10.93
2018-08-07T20:16:25.796Z,13.57
2018-08-07T20:18:56.271Z,12.57
2018-08-07T20:21:26.805Z,10.30
2018-08-07T20:23:57.445Z,9.83
2018-08-07T20:26:28.112Z,10.77
2018-08-07T20:28:58.630Z,10.50
2018-08-07T20:31:29.151Z,11.37
2018-08-07T20:34:06.001Z,11.83
2018-08-07T20:36:36.553Z,11.23
2018-08-07T20:39:10.106Z,12.60
2018-08-07T20:41:40.685Z,11.30
2018-08-07T20:44:11.057Z,11.73
2018-08-07T20:46:41.680Z,11.27
2018-08-07T20:49:12.089Z,10.70
2018-08-07T20:51:42.691Z,10.80
2018-08-07T20:54:13.164Z,10.17
2018-08-07T20:56:43.659Z,10.07
2018-08-07T20:59:14.032Z,10.60
2018-08-07T21:01:44.526Z,10.07
2018-08-07T21:04:15.081Z,10.43
2018-08-07T21:06:45.652Z,9.90
2018-08-07T21:09:16.178Z,10.23
2018-08-07T21:11:46.949Z,9.27
2018-08-07T21:14:17.407Z,9.20
2018-08-07T21:16:47.957Z,9.73
2018-08-07T21:19:18.493Z,9.10
2018-08-07T21:21:48.789Z,9.57
2018-08-07T21:24:19.221Z,9.30
2018-08-07T21:26:49.689Z,9.83
2018-08-07T21:29:19.995Z,9.47
2018-08-07T21:31:50.387Z,8.90
2018-08-07T21:34:20.739Z,9.50
2018-08-07T21:36:51.278Z,8.87
2018-08-07T21:39:21.810Z,9.87
2018-08-07T21:41:51.983Z,9.57
2018-08-07T21:44:22.438Z,10.00
2018-08-07T21:46:52.869Z,8.33
2018-08-07T21:49:23.401Z,8.73
2018-08-07T21:51:53.929Z,10.07
2018-08-07T21:54:24.476Z,9.30
2018-08-07T21:56:54.835Z,9.10
2018-08-07T21:59:25.230Z,8.17
2018-08-07T22:01:56.603Z,7.63
2018-08-07T22:04:27.043Z,8.20
2018-08-07T22:06:57.545Z,8.57
2018-08-07T22:09:28.041Z,8.73
2018-08-07T22:11:58.485Z,8.87
2018-08-07T22:14:28.773Z,9.27
2018-08-07T22:16:59.209Z,8.03
2018-08-07T22:19:29.663Z,8.90
2018-08-07T22:21:59.891Z,8.30
2018-08-07T22:24:30.397Z,8.23
2018-08-07T22:27:00.906Z,9.13
2018-08-07T22:29:31.299Z,7.80
2018-08-07T22:32:01.905Z,8.20
2018-08-07T22:34:32.109Z,8.97
2018-08-07T22:37:02.656Z,8.63
2018-08-07T22:39:33.143Z,8.10
2018-08-07T22:42:03.616Z,9.30
2018-08-07T22:44:33.963Z,10.50
2018-08-07T22:47:04.360Z,11.13
2018-08-07T22:49:34.719Z,9.87
2018-08-07T22:52:05.202Z,9.40
2018-08-07T22:54:35.583Z,8.63
2018-08-07T22:57:06.408Z,9.20
2018-08-07T22:59:36.848Z,9.10
2018-08-07T23:02:07.254Z,8.80
2018-08-07T23:04:37.842Z,9.80
2018-08-07T23:07:08.242Z,8.20
2018-08-07T23:09:38.684Z,9.03
2018-08-07T23:12:09.072Z,9.27
2018-08-07T23:14:39.202Z,8.90
2018-08-07T23:17:09.804Z,10.40
2018-08-07T23:19:40.389Z,7.97
2018-08-07T23:22:10.969Z,8.80
2018-08-07T23:24:41.314Z,8.87
2018-08-07T23:27:11.832Z,9.67
2018-08-07T23:29:42.216Z,9.80
2018-08-07T23:32:12.639Z,8.37
2018-08-07T23:34:42.831Z,10.30
2018-08-07T23:37:13.302Z,9.70
2018-08-07T23:39:43.711Z,9.60
2018-08-07T23:42:14.055Z,9.00
2018-08-07T23:44:44.438Z,10.00
2018-08-07T23:47:14.816Z,9.93
2018-08-07T23:49:45.292Z,9.80
2018-08-07T23:52:15.892Z,8.47
2018-08-07T23:54:46.352Z,9.13
2018-08-07T23:57:16.923Z,12.17
2018-08-07T23:59:47.239Z,10.60
